Skip Navigation LinksHome page > Weather > Current weather Skip Navigation Links

Current Weather

Miami Intl, Miami

For information only: do not use for flight planning or navigation.
Latest weather
Observation time Sunday, August 25, 2019 12:53 AM EDT
Local time Sunday, August 25, 2019 1:10 AM EDT
Flight conditions Visual Meteorological Conditions
Winds
Wind direction South (180°)
Wind speed 5 mph
Visibility 10 mi.
Sky condition
Ceiling unlimited
Cloud layer few clouds 3,000 ft.
Cloud layer few clouds 25,000 ft.
Temperature 82°F
Dewpoint 77°F
Altimeter 29.93 in.Hg
Derived measurements
Relative humidity 85%
Heat index 90°F
Density altitude 1894 ft.
Sea-level pressure 29.93 in.Hg
Climate data
Temperature minimum, last 24 hours 79°F
Temperature maximum, last 24 hours 93°F
Remarks
Automated weather observing station with precipitation discriminator.
METAR KMIA 250453Z 18004KT 10SM FEW030 FEW250 28/25 A2993 RMK AO2 SLP136 T02780250 403390261

Settings

Location code

InnerDrive.Weather 4.0.6770.0 Release CLR 4.0.30319.42000
Copyright ©2018 Inner Drive Technology. All rights reserved. Portions Copyright ©1986-2018 David Braverman.

Find weather

Site navigation


Skip Navigation Links

Place info

Page info

PayPal - The safer, easier way to pay online!

Return home.

Copyright ©2019 Inner Drive Technology. Purveyors of fine, hand-crafted computer software. Page printed 2019-08-25T05:10:20 UTC.